Time;durP1;ratioP1;P1;durP2;ratioP2;P2;SDS_P1;SDS_P2;PMS_P1;PMS_P2;Temp;Humidity;BMP_temperature;BMP_pressure;BME280_temperature;BME280_humidity;BME280_pressure;Samples;Min_cycle;Max_cycle;Signal;HPM_P1;HPM_P2
2022/03/13 00:00:21;;;;;;;12.17;6.77;;;4.00;59.10;;;;;;5044717;28;20827;-76
2022/03/13 00:02:52;;;;;;;13.90;7.07;;;3.90;59.20;;;;;;5012974;28;20239;-76
2022/03/13 00:05:23;;;;;;;13.17;6.87;;;3.90;59.20;;;;;;5044247;28;20232;-76
2022/03/13 00:07:55;;;;;;;12.77;6.70;;;3.90;59.30;;;;;;5043624;28;20319;-76
2022/03/13 00:10:28;;;;;;;12.17;6.00;;;3.90;59.60;;;;;;5044265;28;20799;-76
2022/03/13 00:12:56;;;;;;;13.27;7.27;;;3.90;59.60;;;;;;5043219;28;20205;-76
2022/03/13 00:15:35;;;;;;;11.90;6.77;;;3.90;59.70;;;;;;5044707;28;20209;-75
2022/03/13 00:18:04;;;;;;;12.43;7.03;;;3.90;59.80;;;;;;5043838;28;20696;-76
2022/03/13 00:20:33;;;;;;;11.50;6.47;;;3.90;59.90;;;;;;5044248;28;20258;-77
2022/03/13 00:23:01;;;;;;;14.13;7.43;;;3.90;60.20;;;;;;5043872;28;20197;-76
2022/03/13 00:25:29;;;;;;;12.57;7.20;;;3.80;60.30;;;;;;5043289;28;20207;-76
2022/03/13 00:27:58;;;;;;;12.43;6.97;;;3.80;60.20;;;;;;5043707;28;20198;-76
2022/03/13 00:30:26;;;;;;;15.70;6.83;;;3.90;60.30;;;;;;5043621;28;20675;-76
2022/03/13 00:32:54;;;;;;;14.93;6.90;;;3.90;60.30;;;;;;5043499;28;20808;-76
2022/03/13 00:35:24;;;;;;;16.67;6.90;;;3.90;60.20;;;;;;5045507;28;20207;-75
2022/03/13 00:37:53;;;;;;;14.47;6.67;;;3.90;60.20;;;;;;5044177;28;20204;-75
2022/03/13 00:40:21;;;;;;;11.57;6.80;;;3.90;61.10;;;;;;5042844;28;20201;-75
2022/03/13 00:42:50;;;;;;;11.47;6.60;;;3.90;60.20;;;;;;5043754;28;20206;-75
2022/03/13 00:45:18;;;;;;;13.53;7.03;;;3.90;60.30;;;;;;5041820;28;20919;-76
2022/03/13 00:47:47;;;;;;;15.57;8.15;;;3.90;60.20;;;;;;5041343;28;20441;-74
2022/03/13 00:50:16;;;;;;;14.60;7.40;;;3.90;60.30;;;;;;5043411;28;21688;-76
2022/03/13 00:52:46;;;;;;;13.87;7.13;;;3.90;60.50;;;;;;5045143;28;20207;-76
2022/03/13 00:55:14;;;;;;;12.67;6.83;;;4.00;60.30;;;;;;5043729;28;20403;-76
2022/03/13 00:57:43;;;;;;;13.43;7.27;;;4.00;60.30;;;;;;5044036;28;20255;-77
2022/03/13 01:00:13;;;;;;;12.77;6.77;;;3.90;60.10;;;;;;5043560;28;20198;-75
2022/03/13 01:02:42;;;;;;;11.93;6.43;;;4.00;60.00;;;;;;5043034;28;20663;-75
2022/03/13 01:05:12;;;;;;;12.90;6.30;;;4.00;59.80;;;;;;5043483;28;20220;-76
2022/03/13 01:07:40;;;;;;;15.27;7.07;;;4.00;59.70;;;;;;5043310;28;20209;-75
2022/03/13 01:10:14;;;;;;;14.80;7.23;;;4.00;59.70;;;;;;5044100;28;20666;-75
2022/03/13 01:12:43;;;;;;;15.50;6.87;;;4.00;59.70;;;;;;5042975;28;20225;-75
2022/03/13 01:15:11;;;;;;;11.40;6.63;;;3.90;59.60;;;;;;5044578;28;21625;-75
2022/03/13 01:17:39;;;;;;;15.57;7.17;;;4.00;59.70;;;;;;5043782;28;20257;-75
2022/03/13 01:20:16;;;;;;;15.37;7.47;;;3.90;59.80;;;;;;5043781;28;20226;-75
2022/03/13 01:22:45;;;;;;;13.55;7.75;;;3.90;60.00;;;;;;5042048;28;20437;-75
2022/03/13 01:25:15;;;;;;;14.37;7.40;;;3.90;60.20;;;;;;5043551;28;20201;-75
2022/03/13 01:27:43;;;;;;;14.60;6.70;;;3.90;60.20;;;;;;5043161;28;20339;-75
2022/03/13 01:30:13;;;;;;;12.27;7.00;;;3.90;60.10;;;;;;5044760;28;20208;-76
2022/03/13 01:32:48;;;;;;;14.37;7.67;;;3.90;59.90;;;;;;5043978;28;20244;-76
2022/03/13 01:35:20;;;;;;;15.17;7.80;;;3.90;59.80;;;;;;5043550;28;20200;-76
2022/03/13 01:37:49;;;;;;;12.20;7.17;;;3.90;59.70;;;;;;5042091;28;20192;-76
2022/03/13 01:40:22;;;;;;;13.80;7.13;;;4.00;59.70;;;;;;5042121;28;20223;-76
2022/03/13 01:42:51;;;;;;;14.67;7.10;;;3.90;59.70;;;;;;5041485;28;20761;-75
2022/03/13 01:45:20;;;;;;;12.83;6.63;;;3.90;59.70;;;;;;5043401;28;20236;-76
2022/03/13 01:47:49;;;;;;;14.47;7.43;;;3.90;59.70;;;;;;5042836;28;20213;-75
2022/03/13 01:50:18;;;;;;;18.27;6.47;;;3.90;59.70;;;;;;5041986;28;20209;-75
2022/03/13 01:52:48;;;;;;;14.87;6.83;;;4.00;59.70;;;;;;5042882;28;20618;-76
2022/03/13 01:55:17;;;;;;;12.77;6.53;;;4.00;59.60;;;;;;5043729;28;20630;-76
2022/03/13 01:57:47;;;;;;;15.00;6.70;;;4.10;59.70;;;;;;5043605;28;20205;-76
2022/03/13 02:00:19;;;;;;;16.93;6.93;;;4.10;59.60;;;;;;5043210;28;20332;-76
2022/03/13 02:02:48;;;;;;;14.17;6.90;;;4.10;59.50;;;;;;5042467;28;20755;-76
2022/03/13 02:05:31;;;;;;;11.87;6.33;;;4.10;59.60;;;;;;5042367;28;20687;-76
2022/03/13 02:08:01;;;;;;;16.90;7.27;;;4.10;59.50;;;;;;5044074;28;20210;-75
2022/03/13 02:10:30;;;;;;;13.37;6.63;;;4.10;59.50;;;;;;5041522;28;20257;-76
2022/03/13 02:12:59;;;;;;;13.57;6.83;;;4.10;59.50;;;;;;5042201;28;20248;-75
2022/03/13 02:15:33;;;;;;;12.60;6.43;;;4.10;59.50;;;;;;5042766;28;20206;-76
2022/03/13 02:18:04;;;;;;;17.07;7.40;;;4.10;59.60;;;;;;5043564;28;20200;-75
2022/03/13 02:20:39;;;;;;;16.00;7.23;;;4.10;59.60;;;;;;5042594;28;20786;-76
2022/03/13 02:23:16;;;;;;;11.27;7.07;;;4.20;59.90;;;;;;5041842;28;20250;-75
2022/03/13 02:25:44;;;;;;;12.00;6.90;;;4.20;59.50;;;;;;5042893;28;20205;-75
2022/03/13 02:28:14;;;;;;;13.43;7.23;;;4.20;59.50;;;;;;5041996;28;20671;-75
2022/03/13 02:30:42;;;;;;;14.53;7.23;;;4.20;59.40;;;;;;5043485;28;20198;-75
2022/03/13 02:33:11;;;;;;;13.73;7.30;;;4.20;59.50;;;;;;5041624;28;20226;-75
2022/03/13 02:35:40;;;;;;;14.83;7.90;;;4.20;59.50;;;;;;5041073;28;20205;-76
2022/03/13 02:38:09;;;;;;;14.77;7.43;;;4.20;59.40;;;;;;5042390;28;20301;-76
2022/03/13 02:40:38;;;;;;;11.87;7.00;;;4.30;59.50;;;;;;5041579;28;20301;-75
2022/03/13 02:43:06;;;;;;;10.53;6.77;;;4.30;59.40;;;;;;5043310;28;20654;-76
2022/03/13 02:45:37;;;;;;;14.70;7.33;;;4.30;59.50;;;;;;5041703;28;20198;-76
2022/03/13 02:48:08;;;;;;;13.40;7.37;;;4.30;59.50;;;;;;5040910;28;20194;-75
2022/03/13 02:50:37;;;;;;;15.83;8.37;;;4.30;59.40;;;;;;5042044;28;20194;-76
2022/03/13 02:53:06;;;;;;;17.43;6.83;;;4.40;59.50;;;;;;5041404;28;20270;-76
2022/03/13 02:55:36;;;;;;;13.63;6.90;;;4.30;59.40;;;;;;5041468;28;20206;-76
2022/03/13 02:58:05;;;;;;;14.73;7.70;;;4.40;59.50;;;;;;5046678;28;20194;-76
2022/03/13 03:00:46;;;;;;;14.37;7.33;;;4.40;59.50;;;;;;5046223;28;20851;-76
2022/03/13 03:03:16;;;;;;;13.13;7.67;;;4.40;59.50;;;;;;5045471;28;20972;-76
2022/03/13 03:05:45;;;;;;;13.27;7.60;;;4.40;59.50;;;;;;5044950;28;20773;-75
2022/03/13 03:08:14;;;;;;;15.20;8.30;;;4.40;59.40;;;;;;5046142;28;20206;-75
2022/03/13 03:10:45;;;;;;;17.10;8.30;;;4.50;59.50;;;;;;5045816;28;20276;-75
2022/03/13 03:13:15;;;;;;;15.17;7.33;;;4.40;59.40;;;;;;5046076;28;20220;-75
2022/03/13 03:15:43;;;;;;;14.07;7.37;;;4.50;59.40;;;;;;5044876;28;20285;-75
2022/03/13 03:18:12;;;;;;;12.07;7.00;;;4.50;59.30;;;;;;5045542;28;20224;-75
2022/03/13 03:20:41;;;;;;;16.43;7.57;;;4.60;59.40;;;;;;5045441;28;20780;-75
2022/03/13 03:23:09;;;;;;;15.73;7.77;;;4.60;59.40;;;;;;5045683;28;20331;-75
2022/03/13 03:25:38;;;;;;;15.53;7.90;;;4.60;59.40;;;;;;5043379;28;20198;-75
2022/03/13 03:28:08;;;;;;;15.03;8.03;;;4.60;59.40;;;;;;5046049;28;20255;-75
2022/03/13 03:30:36;;;;;;;15.37;8.40;;;4.60;59.40;;;;;;5044282;28;20195;-76
2022/03/13 03:33:05;;;;;;;14.03;7.37;;;4.60;59.50;;;;;;5044784;28;20207;-76
2022/03/13 03:35:34;;;;;;;15.70;7.83;;;4.60;59.50;;;;;;5044568;28;20202;-75
2022/03/13 03:38:03;;;;;;;14.10;7.60;;;4.60;59.50;;;;;;5043683;28;20723;-75
2022/03/13 03:40:33;;;;;;;17.50;9.13;;;4.60;59.60;;;;;;5044372;28;20233;-74
2022/03/13 03:43:03;;;;;;;13.10;7.57;;;4.60;59.50;;;;;;5046095;28;20255;-75
2022/03/13 03:45:33;;;;;;;13.80;7.53;;;4.60;59.50;;;;;;5046369;28;20201;-75
2022/03/13 03:48:02;;;;;;;14.60;7.27;;;4.60;59.60;;;;;;5045808;28;20255;-75
2022/03/13 03:50:30;;;;;;;13.87;7.10;;;4.70;59.60;;;;;;5046861;28;20653;-75
2022/03/13 03:52:59;;;;;;;16.77;7.83;;;4.70;59.60;;;;;;5045025;28;20204;-75
2022/03/13 03:55:28;;;;;;;13.17;7.63;;;4.70;59.60;;;;;;5046318;28;20582;-76
2022/03/13 03:57:57;;;;;;;15.87;7.53;;;4.70;59.60;;;;;;5045935;28;20194;-76
2022/03/13 04:00:26;;;;;;;18.43;8.37;;;4.70;59.70;;;;;;5044786;28;20269;-75
2022/03/13 04:02:56;;;;;;;14.33;7.67;;;4.70;59.70;;;;;;5043862;28;20765;-75
2022/03/13 04:05:25;;;;;;;15.13;7.63;;;4.70;59.80;;;;;;5043272;28;20201;-75
2022/03/13 04:07:53;;;;;;;15.07;8.10;;;4.70;59.70;;;;;;5043451;28;20220;-76
2022/03/13 04:10:25;;;;;;;14.37;7.77;;;4.70;59.70;;;;;;5043543;28;20234;-75
2022/03/13 04:12:53;;;;;;;16.33;8.00;;;4.70;59.80;;;;;;5045975;28;20694;-75
2022/03/13 04:15:24;;;;;;;15.93;7.87;;;4.70;59.90;;;;;;5045846;28;20637;-75
2022/03/13 04:17:55;;;;;;;15.60;7.57;;;4.70;59.90;;;;;;5043097;28;20230;-76
2022/03/13 04:20:25;;;;;;;13.20;6.90;;;4.70;60.00;;;;;;5044860;28;20204;-76
2022/03/13 04:22:53;;;;;;;14.90;7.60;;;4.70;59.90;;;;;;5043031;28;20275;-76
2022/03/13 04:25:22;;;;;;;14.43;7.57;;;4.70;59.90;;;;;;5043509;28;20203;-76
2022/03/13 04:27:50;;;;;;;16.87;8.23;;;4.70;59.90;;;;;;5043020;28;20844;-75
2022/03/13 04:30:19;;;;;;;13.47;7.27;;;4.70;60.00;;;;;;5044400;28;20201;-76
2022/03/13 04:32:48;;;;;;;16.50;7.50;;;4.70;59.90;;;;;;5044256;28;20216;-76
2022/03/13 04:35:16;;;;;;;15.77;8.57;;;4.70;59.80;;;;;;5043926;28;20221;-76
2022/03/13 04:37:47;;;;;;;16.37;7.83;;;4.70;59.80;;;;;;5045456;28;20212;-76
2022/03/13 04:40:15;;;;;;;15.80;7.97;;;4.70;59.80;;;;;;5043668;28;20204;-74
2022/03/13 04:42:43;;;;;;;13.73;7.43;;;4.70;59.70;;;;;;5044433;28;20200;-76
2022/03/13 04:45:13;;;;;;;15.17;8.00;;;4.70;59.60;;;;;;5044091;28;20194;-76
2022/03/13 04:47:42;;;;;;;15.77;7.63;;;4.80;59.70;;;;;;5045539;28;20906;-76
2022/03/13 04:50:11;;;;;;;12.40;7.07;;;4.80;59.60;;;;;;5044963;28;20193;-76
2022/03/13 04:52:39;;;;;;;15.30;7.73;;;4.80;59.60;;;;;;5044179;28;20211;-76
2022/03/13 04:55:09;;;;;;;14.03;7.93;;;4.80;59.50;;;;;;5044236;28;20217;-76
2022/03/13 04:57:38;;;;;;;13.57;8.00;;;4.80;59.40;;;;;;5043460;28;20209;-76
2022/03/13 05:00:07;;;;;;;19.77;8.63;;;4.90;59.40;;;;;;5044177;28;20201;-76
2022/03/13 05:02:37;;;;;;;16.00;8.10;;;4.80;59.40;;;;;;5043653;28;20221;-76
2022/03/13 05:05:07;;;;;;;13.40;7.67;;;4.90;59.40;;;;;;5043591;28;20785;-76
2022/03/13 05:07:38;;;;;;;17.73;8.13;;;4.90;59.40;;;;;;5044468;28;20206;-75
2022/03/13 05:10:09;;;;;;;15.87;7.53;;;4.90;59.40;;;;;;5043576;28;20210;-76
2022/03/13 05:12:37;;;;;;;16.43;7.77;;;4.90;59.40;;;;;;5045234;28;20232;-76
2022/03/13 05:15:06;;;;;;;21.03;8.13;;;4.90;59.30;;;;;;5043604;28;20228;-75
2022/03/13 05:17:35;;;;;;;16.90;7.90;;;4.90;59.30;;;;;;5042738;28;20198;-75
2022/03/13 05:20:03;;;;;;;17.30;7.90;;;4.90;59.20;;;;;;5040971;28;20312;-75
2022/03/13 05:22:31;;;;;;;14.93;8.13;;;4.90;59.20;;;;;;5042111;28;20672;-74
2022/03/13 05:25:00;;;;;;;17.73;8.57;;;5.00;59.30;;;;;;5045274;28;20207;-75
2022/03/13 05:27:29;;;;;;;14.03;8.03;;;5.00;59.30;;;;;;5043039;28;20204;-75
2022/03/13 05:29:58;;;;;;;15.07;8.17;;;5.00;59.30;;;;;;5043978;28;20256;-74
2022/03/13 05:32:26;;;;;;;17.23;8.97;;;5.00;59.40;;;;;;5045374;28;20205;-74
2022/03/13 05:34:56;;;;;;;17.07;8.17;;;5.00;59.40;;;;;;5043663;28;20224;-75
2022/03/13 05:37:25;;;;;;;17.77;8.30;;;5.10;59.40;;;;;;5044185;28;20204;-75
2022/03/13 05:39:53;;;;;;;15.73;8.50;;;5.10;59.50;;;;;;5042617;28;20197;-75
2022/03/13 05:42:24;;;;;;;14.90;7.20;;;5.10;59.40;;;;;;5045224;28;20211;-74
2022/03/13 05:44:54;;;;;;;15.20;7.57;;;5.10;59.20;;;;;;5044397;28;20186;-74
2022/03/13 05:47:23;;;;;;;14.83;7.57;;;5.20;59.20;;;;;;5042539;28;20248;-75
2022/03/13 05:49:51;;;;;;;15.37;8.00;;;5.20;59.20;;;;;;5042151;28;20203;-76
2022/03/13 05:52:20;;;;;;;14.73;7.47;;;5.20;59.10;;;;;;5043564;28;20206;-76
2022/03/13 05:54:48;;;;;;;14.97;7.97;;;5.20;59.00;;;;;;5043128;28;20218;-75
2022/03/13 05:57:16;;;;;;;15.23;8.03;;;5.20;59.00;;;;;;5042303;28;20213;-76
2022/03/13 05:59:45;;;;;;;16.73;7.20;;;5.20;58.90;;;;;;5042455;28;20195;-76
2022/03/13 06:02:15;;;;;;;16.30;8.00;;;5.20;58.90;;;;;;5040039;28;20284;-76
2022/03/13 06:04:43;;;;;;;13.63;7.80;;;5.20;59.00;;;;;;5043208;28;20195;-76
2022/03/13 06:07:11;;;;;;;12.67;7.10;;;5.20;58.90;;;;;;5043236;28;21205;-75
2022/03/13 06:09:40;;;;;;;16.70;8.07;;;5.20;59.20;;;;;;5043580;28;20205;-77
2022/03/13 06:12:09;;;;;;;13.63;7.23;;;5.30;58.90;;;;;;5042198;28;20195;-75
2022/03/13 06:14:37;;;;;;;14.47;7.13;;;5.30;59.10;;;;;;5043783;28;20221;-76
2022/03/13 06:17:05;;;;;;;14.20;7.60;;;5.40;59.00;;;;;;5043981;28;20194;-76
2022/03/13 06:19:39;;;;;;;18.70;8.70;;;5.40;59.10;;;;;;5042976;28;20204;-76
2022/03/13 06:22:11;;;;;;;18.43;8.63;;;5.40;59.20;;;;;;5042587;28;20656;-75
2022/03/13 06:24:40;;;;;;;14.27;7.73;;;5.50;59.20;;;;;;5043484;28;20195;-75
2022/03/13 06:27:10;;;;;;;12.87;7.80;;;5.50;59.10;;;;;;5041952;28;20201;-75
2022/03/13 06:29:39;;;;;;;18.20;8.47;;;5.60;59.10;;;;;;5042182;28;20742;-75
2022/03/13 06:32:08;;;;;;;13.63;7.43;;;5.60;58.90;;;;;;5044496;28;20195;-77
2022/03/13 06:34:38;;;;;;;16.10;8.53;;;5.70;58.90;;;;;;5045737;28;20202;-76
2022/03/13 06:37:08;;;;;;;13.20;8.20;;;5.70;58.90;;;;;;5045987;28;20203;-75
2022/03/13 06:39:36;;;;;;;16.10;8.82;;;5.80;58.90;;;;;;5045210;28;20450;-75
2022/03/13 06:42:05;;;;;;;14.20;7.57;;;5.80;59.20;;;;;;5046121;28;20203;-76
2022/03/13 06:44:35;;;;;;;15.23;8.17;;;5.80;59.00;;;;;;5046353;28;20194;-76
2022/03/13 06:47:04;;;;;;;16.43;8.13;;;5.90;58.80;;;;;;5046446;28;20203;-74
2022/03/13 06:49:32;;;;;;;18.27;8.37;;;5.90;58.80;;;;;;5046070;28;20198;-75
2022/03/13 06:52:02;;;;;;;19.50;8.87;;;6.00;58.90;;;;;;5046191;28;20258;-76
2022/03/13 06:54:30;;;;;;;15.43;9.00;;;6.00;58.70;;;;;;5045624;28;20698;-76
2022/03/13 06:56:58;;;;;;;13.17;7.77;;;6.00;58.60;;;;;;5046287;28;20222;-76
2022/03/13 06:59:27;;;;;;;21.57;8.63;;;6.10;58.40;;;;;;5046390;28;20735;-76
2022/03/13 07:01:55;;;;;;;16.77;8.10;;;6.10;58.40;;;;;;5045711;28;20198;-76
2022/03/13 07:04:23;;;;;;;16.55;8.63;;;6.10;58.10;;;;;;5045607;28;20429;-75
2022/03/13 07:06:52;;;;;;;16.37;7.47;;;6.20;58.00;;;;;;5046040;28;20318;-75
2022/03/13 07:09:21;;;;;;;16.07;8.27;;;6.20;57.90;;;;;;5045818;28;20837;-76
2022/03/13 07:11:49;;;;;;;18.03;8.57;;;6.20;57.90;;;;;;5045569;28;20209;-76
2022/03/13 07:14:18;;;;;;;13.97;7.67;;;6.30;58.00;;;;;;5047852;28;20203;-75
2022/03/13 07:16:47;;;;;;;16.27;8.33;;;6.30;57.20;;;;;;5045558;28;20219;-76
2022/03/13 07:19:15;;;;;;;14.60;7.83;;;6.30;57.10;;;;;;5044879;28;20203;-76
2022/03/13 07:21:44;;;;;;;15.03;8.97;;;6.50;57.30;;;;;;5045573;28;20691;-75
2022/03/13 07:24:12;;;;;;;18.87;9.13;;;6.50;57.30;;;;;;5044853;28;20206;-75
2022/03/13 07:26:41;;;;;;;15.80;9.20;;;6.50;57.30;;;;;;5044888;28;20598;-76
2022/03/13 07:29:10;;;;;;;17.67;8.73;;;6.60;57.30;;;;;;5044414;28;20208;-76
2022/03/13 07:31:38;;;;;;;19.50;9.67;;;6.70;57.30;;;;;;5044494;28;20197;-76
2022/03/13 07:34:06;;;;;;;16.63;8.07;;;6.70;57.50;;;;;;5045299;28;20203;-77
2022/03/13 07:36:35;;;;;;;19.83;8.77;;;6.80;57.60;;;;;;5046508;28;20214;-75
2022/03/13 07:39:04;;;;;;;17.13;8.43;;;6.90;57.30;;;;;;5045174;28;20204;-77
2022/03/13 07:41:33;;;;;;;22.58;9.90;;;6.90;57.00;;;;;;5044285;28;20505;-76
2022/03/13 07:44:04;;;;;;;16.43;9.00;;;6.90;57.30;;;;;;5042530;28;20198;-77
2022/03/13 07:46:32;;;;;;;17.20;8.20;;;7.00;57.20;;;;;;5044316;28;20201;-76
2022/03/13 07:49:00;;;;;;;15.97;8.50;;;7.10;57.10;;;;;;5045828;28;20258;-77
2022/03/13 07:51:29;;;;;;;17.03;9.03;;;7.10;56.70;;;;;;5044888;28;20668;-77
2022/03/13 07:53:57;;;;;;;17.27;8.67;;;7.20;56.70;;;;;;5044588;28;20192;-77
2022/03/13 07:56:25;;;;;;;16.23;8.50;;;7.20;56.30;;;;;;5045225;28;20239;-77
2022/03/13 07:58:53;;;;;;;17.17;8.57;;;7.30;56.30;;;;;;5044732;28;20205;-77
2022/03/13 08:01:25;;;;;;;16.07;8.37;;;7.40;56.30;;;;;;5041952;28;20754;-77
2022/03/13 08:03:57;;;;;;;17.10;9.32;;;7.40;56.40;;;;;;5043419;28;20445;-76
2022/03/13 08:06:25;;;;;;;14.60;9.13;;;7.50;55.70;;;;;;5045225;28;20201;-77
2022/03/13 08:08:54;;;;;;;17.17;8.83;;;7.60;55.60;;;;;;5043789;28;20207;-76
2022/03/13 08:11:23;;;;;;;22.00;8.97;;;7.60;55.70;;;;;;5043674;28;20196;-76
2022/03/13 08:13:51;;;;;;;16.23;8.63;;;7.70;55.50;;;;;;5043781;28;20283;-76
2022/03/13 08:16:19;;;;;;;15.20;8.67;;;7.70;55.10;;;;;;5045333;28;20229;-77
2022/03/13 08:18:49;;;;;;;17.37;9.87;;;7.80;55.30;;;;;;5045273;28;20194;-77
2022/03/13 08:21:17;;;;;;;16.87;9.13;;;7.90;55.30;;;;;;5045322;28;20211;-77
2022/03/13 08:23:51;;;;;;;17.77;9.40;;;7.90;55.40;;;;;;5044916;28;20715;-77
2022/03/13 08:26:19;;;;;;;16.60;9.33;;;8.00;54.90;;;;;;5045954;28;20221;-77
2022/03/13 08:28:47;;;;;;;16.70;10.00;;;8.10;54.80;;;;;;5045386;28;20202;-77
2022/03/13 08:31:17;;;;;;;16.73;9.87;;;8.20;55.10;;;;;;5045584;28;20210;-76
2022/03/13 08:33:45;;;;;;;17.20;8.83;;;8.30;55.30;;;;;;5044104;28;20317;-77
2022/03/13 08:36:15;;;;;;;17.67;9.03;;;8.30;54.30;;;;;;5044916;28;20222;-77
2022/03/13 08:38:43;;;;;;;18.67;9.40;;;8.30;54.40;;;;;;5043404;28;20445;-77
2022/03/13 08:41:12;;;;;;;17.77;9.87;;;8.40;54.70;;;;;;5043744;28;20699;-77
2022/03/13 08:43:40;;;;;;;16.73;9.30;;;8.50;54.70;;;;;;5045786;28;20205;-77
2022/03/13 08:46:12;;;;;;;17.97;8.87;;;8.50;54.10;;;;;;5044400;28;20391;-77
2022/03/13 08:48:41;;;;;;;16.60;9.10;;;8.50;53.70;;;;;;5043760;28;20229;-77
2022/03/13 08:51:12;;;;;;;17.90;9.90;;;8.50;53.70;;;;;;5043660;28;20198;-77
2022/03/13 08:53:42;;;;;;;20.20;9.27;;;8.60;53.80;;;;;;5043230;28;20195;-77
2022/03/13 08:56:13;;;;;;;18.23;9.27;;;8.70;53.70;;;;;;5043642;28;20635;-77
2022/03/13 08:58:41;;;;;;;15.47;8.90;;;8.70;53.90;;;;;;5042979;28;20971;-77
2022/03/13 09:01:10;;;;;;;18.80;9.70;;;8.80;54.70;;;;;;5043418;28;20202;-76
2022/03/13 09:03:39;;;;;;;17.97;9.10;;;8.80;53.20;;;;;;5042703;28;20226;-77
2022/03/13 09:06:07;;;;;;;21.13;10.03;;;8.90;53.00;;;;;;5043385;28;20253;-78
2022/03/13 09:08:35;;;;;;;18.20;9.37;;;9.00;53.10;;;;;;5041760;28;20356;-77
2022/03/13 09:11:07;;;;;;;18.97;9.20;;;9.10;53.30;;;;;;5044014;28;20229;-77
2022/03/13 09:13:36;;;;;;;15.97;9.37;;;9.20;53.60;;;;;;5044986;28;20226;-79
2022/03/13 09:16:05;;;;;;;22.37;10.77;;;9.30;53.80;;;;;;5045518;28;20732;-77
2022/03/13 09:18:34;;;;;;;21.90;11.20;;;9.40;53.60;;;;;;5044609;28;20260;-78
2022/03/13 09:21:02;;;;;;;20.47;10.27;;;9.50;53.40;;;;;;5043291;28;20195;-76
2022/03/13 09:23:31;;;;;;;20.80;10.67;;;9.60;53.10;;;;;;5044440;28;20205;-75
2022/03/13 09:25:59;;;;;;;19.83;11.27;;;9.60;52.60;;;;;;5043472;28;20875;-76
2022/03/13 09:28:29;;;;;;;18.67;10.20;;;9.70;52.40;;;;;;5042812;28;20191;-78
2022/03/13 09:30:58;;;;;;;19.83;10.53;;;9.80;52.10;;;;;;5043154;28;20937;-77
2022/03/13 09:33:27;;;;;;;21.80;10.37;;;9.80;51.60;;;;;;5042980;28;20201;-77
2022/03/13 09:35:55;;;;;;;17.50;10.13;;;9.80;51.30;;;;;;5042710;28;20305;-76
2022/03/13 09:38:24;;;;;;;19.43;10.70;;;9.90;51.80;;;;;;5042148;28;20234;-77
2022/03/13 09:40:54;;;;;;;18.17;9.77;;;9.90;52.10;;;;;;5042531;28;20237;-76
2022/03/13 09:43:24;;;;;;;16.07;9.77;;;10.00;51.20;;;;;;5042502;28;20198;-77
2022/03/13 09:45:54;;;;;;;17.83;10.07;;;10.00;51.40;;;;;;5043687;28;20206;-78
2022/03/13 09:48:22;;;;;;;18.13;9.63;;;9.90;51.20;;;;;;5042845;28;20196;-76
2022/03/13 09:50:53;;;;;;;18.07;10.37;;;9.90;50.50;;;;;;5043358;28;20684;-77
2022/03/13 09:53:22;;;;;;;20.10;9.50;;;10.00;50.90;;;;;;5041874;28;20656;-78
2022/03/13 09:55:50;;;;;;;17.63;9.87;;;10.10;51.20;;;;;;5042716;28;20207;-77
2022/03/13 09:58:19;;;;;;;17.00;8.33;;;10.10;51.20;;;;;;5042474;28;20237;-77
2022/03/13 10:00:48;;;;;;;14.10;8.07;;;10.20;51.00;;;;;;5041777;28;20210;-77
2022/03/13 10:03:22;;;;;;;15.63;6.70;;;10.30;50.50;;;;;;5043460;28;20227;-77
2022/03/13 10:05:52;;;;;;;15.70;7.97;;;10.30;50.00;;;;;;5043705;28;21017;-78
2022/03/13 10:08:29;;;;;;;14.97;8.10;;;10.30;49.50;;;;;;5048652;28;20195;-77
2022/03/13 10:10:58;;;;;;;13.57;7.33;;;10.40;49.50;;;;;;5047562;28;20191;-77
2022/03/13 10:13:38;;;;;;;15.17;6.40;;;10.40;48.70;;;;;;5046628;28;20201;-77
2022/03/13 10:16:07;;;;;;;13.20;7.27;;;10.50;49.10;;;;;;5046091;28;20232;-78
2022/03/13 10:18:37;;;;;;;13.13;6.37;;;10.60;48.90;;;;;;5047650;28;20316;-77
2022/03/13 10:21:11;;;;;;;13.17;6.70;;;10.70;47.90;;;;;;5045977;28;20206;-77
2022/03/13 10:23:39;;;;;;;14.73;7.00;;;10.70;47.40;;;;;;5046146;28;20195;-77
2022/03/13 10:26:07;;;;;;;12.43;6.20;;;10.80;47.80;;;;;;5045655;28;20241;-77
2022/03/13 10:28:37;;;;;;;11.60;6.00;;;10.80;47.80;;;;;;5045377;28;20222;-78
2022/03/13 10:31:15;;;;;;;10.73;5.57;;;10.90;48.00;;;;;;5046170;28;20190;-78
2022/03/13 10:34:00;;;;;;;10.63;5.80;;;10.90;47.10;;;;;;5047538;28;20198;-80
2022/03/13 10:36:34;;;;;;;10.37;5.73;;;10.90;46.50;;;;;;5046057;28;20194;-80
2022/03/13 10:39:04;;;;;;;7.73;4.93;;;11.00;46.40;;;;;;5044447;28;20340;-79
2022/03/13 10:41:44;;;;;;;9.20;5.07;;;11.00;46.50;;;;;;5043648;28;20263;-79
2022/03/13 10:44:17;;;;;;;8.53;4.73;;;11.10;46.50;;;;;;5046564;28;20202;-80
2022/03/13 10:46:51;;;;;;;12.47;5.80;;;11.20;46.30;;;;;;5047123;28;20206;-79
2022/03/13 10:49:36;;;;;;;11.20;6.10;;;11.30;46.30;;;;;;5043697;28;20190;-78
2022/03/13 10:52:25;;;;;;;8.00;5.67;;;11.40;46.20;;;;;;5045604;28;20228;-79
2022/03/13 10:54:54;;;;;;;9.90;5.10;;;11.50;46.80;;;;;;5044294;28;20202;-80
2022/03/13 10:57:23;;;;;;;8.73;4.57;;;11.60;46.40;;;;;;5045240;28;20712;-80
2022/03/13 11:00:12;;;;;;;11.35;5.60;;;11.60;46.40;;;;;;5046644;28;20435;-78
2022/03/13 11:02:41;;;;;;;11.47;6.27;;;11.70;46.70;;;;;;5044778;28;20342;-78
2022/03/13 11:05:10;;;;;;;11.10;5.67;;;11.70;45.50;;;;;;5045129;28;20183;-80
2022/03/13 11:07:39;;;;;;;11.10;5.67;;;11.70;45.10;;;;;;5044998;28;20191;-81
2022/03/13 11:10:09;;;;;;;10.27;5.13;;;11.80;45.70;;;;;;5045326;28;20671;-78
2022/03/13 11:12:39;;;;;;;11.20;5.40;;;11.90;45.80;;;;;;5045761;28;20206;-78
2022/03/13 11:15:11;;;;;;;9.70;5.23;;;11.90;45.40;;;;;;5045578;28;20210;-79
2022/03/13 11:17:40;;;;;;;9.73;5.00;;;11.90;45.10;;;;;;5044027;28;20199;-79
2022/03/13 11:20:11;;;;;;;9.70;5.30;;;11.90;45.10;;;;;;5044689;28;20198;-80
2022/03/13 11:22:42;;;;;;;10.30;5.40;;;11.90;45.10;;;;;;5044389;28;20203;-78
2022/03/13 11:25:12;;;;;;;13.20;5.40;;;11.90;44.40;;;;;;5045987;28;20214;-78
2022/03/13 11:27:42;;;;;;;11.60;5.77;;;11.90;44.60;;;;;;5045955;28;20199;-79
2022/03/13 11:30:17;;;;;;;9.57;5.87;;;11.90;44.60;;;;;;5045316;28;20187;-78
2022/03/13 11:32:47;;;;;;;9.77;5.30;;;11.90;44.60;;;;;;5008427;28;20197;-82
2022/03/13 11:35:31;;;;;;;9.77;5.33;;;11.80;44.80;;;;;;5045644;28;20210;-79
2022/03/13 11:38:20;;;;;;;8.50;5.30;;;11.90;44.80;;;;;;5047029;28;20682;-79
2022/03/13 11:40:50;;;;;;;10.23;5.37;;;11.80;44.90;;;;;;5046659;28;20604;-79
2022/03/13 11:43:20;;;;;;;12.60;5.47;;;11.80;45.20;;;;;;5047718;28;20195;-80
2022/03/13 11:45:53;;;;;;;9.87;5.90;;;11.80;45.50;;;;;;5045760;28;20199;-78
2022/03/13 11:48:45;;;;;;;10.90;5.73;;;11.90;45.70;;;;;;5046585;28;20226;-78
2022/03/13 11:51:30;;;;;;;13.97;5.60;;;11.90;45.80;;;;;;5044583;28;20198;-77
2022/03/13 11:54:00;;;;;;;11.00;6.33;;;12.00;45.90;;;;;;5045172;28;20256;-77
2022/03/13 11:56:30;;;;;;;12.63;6.13;;;12.00;45.50;;;;;;5046139;28;20210;-79
2022/03/13 11:59:00;;;;;;;12.70;6.10;;;12.10;45.70;;;;;;5045279;28;20263;-78
2022/03/13 12:01:34;;;;;;;9.87;5.73;;;12.20;45.70;;;;;;5045277;28;20812;-78
2022/03/13 12:04:25;;;;;;;11.07;5.63;;;12.20;44.70;;;;;;5044546;28;20223;-78
2022/03/13 12:07:01;;;;;;;12.07;5.77;;;12.20;45.00;;;;;;5044481;28;20206;-77
2022/03/13 12:09:32;;;;;;;10.93;5.20;;;12.30;45.20;;;;;;5044039;28;20784;-77
2022/03/13 12:12:04;;;;;;;10.03;5.17;;;12.40;45.30;;;;;;5044882;28;20307;-77
2022/03/13 12:14:59;;;;;;;10.73;5.67;;;12.50;44.80;;;;;;5043862;28;20687;-78
2022/03/13 12:17:30;;;;;;;9.73;5.60;;;12.50;44.20;;;;;;5045628;28;20275;-77
2022/03/13 12:20:00;;;;;;;12.97;5.10;;;12.50;43.70;;;;;;5044184;28;20199;-79
2022/03/13 12:22:31;;;;;;;8.97;5.20;;;12.50;43.70;;;;;;5043952;28;20195;-78
2022/03/13 12:25:01;;;;;;;9.43;5.33;;;12.50;43.60;;;;;;5045252;28;20366;-77
2022/03/13 12:27:29;;;;;;;11.63;6.20;;;12.40;43.70;;;;;;5045090;28;20291;-77
2022/03/13 12:29:59;;;;;;;9.53;5.47;;;12.30;43.80;;;;;;5044058;28;21521;-78
2022/03/13 12:32:38;;;;;;;12.43;6.18;;;12.30;43.30;;;;;;5040971;28;20450;-77
2022/03/13 12:35:32;;;;;;;9.63;5.30;;;12.20;43.60;;;;;;5042840;28;20198;-76
2022/03/13 12:38:03;;;;;;;10.17;5.30;;;12.20;43.80;;;;;;5044195;28;20198;-77
2022/03/13 12:40:32;;;;;;;10.63;4.97;;;12.10;44.00;;;;;;5044009;28;20203;-78
2022/03/13 12:43:04;;;;;;;8.70;5.00;;;12.10;44.20;;;;;;5042340;28;20225;-76
2022/03/13 12:45:33;;;;;;;11.17;5.00;;;12.10;44.30;;;;;;5044943;28;20190;-77
2022/03/13 12:48:03;;;;;;;9.53;4.87;;;12.10;44.60;;;;;;5044829;28;20368;-79
2022/03/13 12:50:38;;;;;;;10.37;4.93;;;12.00;44.30;;;;;;5043445;28;20201;-78
2022/03/13 12:53:22;;;;;;;7.97;4.83;;;12.00;44.50;;;;;;5043269;28;20206;-78
2022/03/13 12:55:52;;;;;;;12.13;4.83;;;12.00;44.60;;;;;;5042034;28;20195;-78
2022/03/13 12:58:21;;;;;;;9.27;4.87;;;12.00;45.10;;;;;;5043044;28;20214;-79
2022/03/13 13:00:49;;;;;;;7.70;4.70;;;12.00;45.60;;;;;;5041926;28;20194;-78